createdAt,value
2022-12-29T00:00:10.896Z,9.10
2022-12-29T00:02:37.359Z,9.09
2022-12-29T00:05:07.915Z,9.09
2022-12-29T00:07:34.340Z,9.05
2022-12-29T00:10:00.893Z,9.09
2022-12-29T00:12:47.247Z,9.16
2022-12-29T00:15:32.246Z,9.19
2022-12-29T00:17:58.639Z,9.20
2022-12-29T00:20:43.526Z,9.19
2022-12-29T00:23:29.033Z,9.23
2022-12-29T00:26:14.567Z,9.18
2022-12-29T00:28:59.749Z,9.14
2022-12-29T00:31:44.875Z,9.09
2022-12-29T00:34:31.155Z,9.16
2022-12-29T00:36:58.088Z,9.27
2022-12-29T00:39:45.768Z,9.30
2022-12-29T00:42:41.383Z,9.27
2022-12-29T00:45:08.090Z,9.31
2022-12-29T00:47:34.497Z,9.47
2022-12-29T00:50:03.390Z,9.48
2022-12-29T00:52:34.368Z,9.52
2022-12-29T00:55:00.788Z,9.58
2022-12-29T00:57:33.236Z,9.84
2022-12-29T01:00:00.959Z,10.00
2022-12-29T01:02:30.235Z,10.07
2022-12-29T01:04:56.799Z,10.37
2022-12-29T01:07:23.374Z,10.31
2022-12-29T01:10:08.490Z,10.27
2022-12-29T01:12:45.674Z,10.44
2022-12-29T01:15:15.342Z,10.37
2022-12-29T01:17:41.983Z,10.43
2022-12-29T01:20:09.013Z,10.47
2022-12-29T01:22:35.491Z,10.72
2022-12-29T01:25:04.867Z,10.69
2022-12-29T01:27:33.572Z,10.68
2022-12-29T01:30:00.035Z,10.70
2022-12-29T01:32:26.531Z,11.02
2022-12-29T01:34:52.880Z,11.15
2022-12-29T01:37:19.282Z,11.26
2022-12-29T01:39:48.135Z,11.36
2022-12-29T01:42:23.382Z,11.31
2022-12-29T01:44:53.385Z,11.41
2022-12-29T01:47:50.179Z,11.46
2022-12-29T01:50:16.977Z,11.54
2022-12-29T01:52:55.401Z,11.58
2022-12-29T01:55:22.512Z,11.61
2022-12-29T01:57:54.065Z,11.61
2022-12-29T02:00:23.278Z,11.55
2022-12-29T02:02:53.177Z,11.38
2022-12-29T02:05:22.411Z,11.29
2022-12-29T02:07:51.017Z,11.17
2022-12-29T02:10:22.889Z,11.20
2022-12-29T02:12:49.411Z,11.24
2022-12-29T02:15:16.523Z,11.20
2022-12-29T02:18:22.954Z,11.20
2022-12-29T02:21:22.825Z,11.29
2022-12-29T02:24:14.008Z,11.29
2022-12-29T02:27:17.888Z,11.34
2022-12-29T02:30:03.000Z,11.43
2022-12-29T02:32:56.964Z,11.49
2022-12-29T02:35:53.405Z,11.41
2022-12-29T02:39:05.410Z,11.42
2022-12-29T02:41:58.422Z,11.42
2022-12-29T02:44:36.267Z,11.40
2022-12-29T02:47:15.263Z,11.50
2022-12-29T02:49:55.034Z,11.54
2022-12-29T02:52:28.703Z,11.54
2022-12-29T02:55:03.865Z,11.53
2022-12-29T02:57:42.142Z,11.54
2022-12-29T03:00:13.125Z,11.42
2022-12-29T03:03:17.535Z,11.44
2022-12-29T03:06:04.026Z,11.36
2022-12-29T03:08:30.355Z,11.35
2022-12-29T03:11:32.124Z,11.38
2022-12-29T03:14:53.118Z,11.32
2022-12-29T03:17:38.846Z,11.30
2022-12-29T03:20:10.439Z,11.24
2022-12-29T03:22:42.807Z,11.26
2022-12-29T03:25:40.092Z,11.22
2022-12-29T03:28:37.600Z,11.15
2022-12-29T03:31:05.671Z,11.14
2022-12-29T03:33:33.663Z,11.08
2022-12-29T03:36:08.017Z,11.04
2022-12-29T03:38:58.962Z,11.02
2022-12-29T03:41:30.398Z,11.03
2022-12-29T03:43:57.166Z,11.03
2022-12-29T03:46:23.585Z,11.02
2022-12-29T03:48:50.476Z,11.02
2022-12-29T03:51:16.903Z,10.99
2022-12-29T03:53:47.857Z,11.02
2022-12-29T03:56:16.570Z,11.02
2022-12-29T03:58:44.683Z,11.10
2022-12-29T04:01:11.264Z,11.06
2022-12-29T04:03:38.178Z,11.11
2022-12-29T04:06:05.190Z,11.06
2022-12-29T04:08:33.968Z,11.08
2022-12-29T04:11:00.364Z,11.04
2022-12-29T04:13:26.804Z,10.99
2022-12-29T04:15:55.548Z,10.94
2022-12-29T04:18:22.993Z,11.01
2022-12-29T04:21:01.161Z,11.07
2022-12-29T04:23:28.662Z,11.17
2022-12-29T04:25:55.207Z,11.18
2022-12-29T04:28:21.728Z,11.14
2022-12-29T04:30:48.788Z,11.21
2022-12-29T04:33:15.271Z,11.30
2022-12-29T04:35:43.490Z,11.35
2022-12-29T04:38:13.926Z,11.37
2022-12-29T04:40:41.686Z,11.38
2022-12-29T04:43:08.965Z,11.40
2022-12-29T04:45:35.372Z,11.52
2022-12-29T04:48:01.710Z,11.47
2022-12-29T04:50:30.413Z,11.45
2022-12-29T04:52:56.911Z,11.41
2022-12-29T04:55:25.911Z,11.46
2022-12-29T04:57:52.335Z,11.42
2022-12-29T05:00:19.110Z,11.41
2022-12-29T05:02:46.143Z,11.49
2022-12-29T05:05:12.703Z,11.55
2022-12-29T05:07:40.516Z,11.45
2022-12-29T05:10:07.694Z,11.48
2022-12-29T05:12:36.323Z,11.46
2022-12-29T05:15:05.922Z,11.49
2022-12-29T05:17:32.313Z,11.45
2022-12-29T05:19:58.835Z,11.40
2022-12-29T05:22:25.804Z,11.53
2022-12-29T05:24:52.909Z,11.51
2022-12-29T05:27:19.400Z,11.46
2022-12-29T05:29:45.921Z,11.47
2022-12-29T05:32:12.371Z,11.50
2022-12-29T05:34:38.723Z,11.48
2022-12-29T05:37:05.199Z,11.36
2022-12-29T05:39:31.570Z,11.36
2022-12-29T05:41:57.962Z,11.40
2022-12-29T05:44:25.060Z,11.37
2022-12-29T05:46:51.564Z,11.40
2022-12-29T05:49:18.274Z,11.39
2022-12-29T05:51:45.361Z,11.38
2022-12-29T05:54:16.834Z,11.37
2022-12-29T05:56:43.262Z,11.34
2022-12-29T05:59:12.010Z,11.30
2022-12-29T06:01:38.454Z,11.28
2022-12-29T06:04:07.455Z,11.24
2022-12-29T06:06:33.924Z,11.20
2022-12-29T06:09:03.008Z,11.14
2022-12-29T06:11:29.469Z,11.10
2022-12-29T06:13:57.060Z,11.08
2022-12-29T06:16:23.470Z,11.12
2022-12-29T06:18:49.865Z,11.10
2022-12-29T06:21:16.319Z,11.08
2022-12-29T06:23:46.078Z,11.04
2022-12-29T06:26:12.465Z,11.07
2022-12-29T06:28:39.543Z,11.06
2022-12-29T06:31:05.914Z,11.09
2022-12-29T06:33:34.455Z,11.06
2022-12-29T06:36:03.227Z,11.07
2022-12-29T06:38:29.589Z,11.09
2022-12-29T06:40:55.933Z,11.07
2022-12-29T06:43:22.468Z,11.12
2022-12-29T06:45:48.953Z,11.26
2022-12-29T06:48:17.910Z,11.27
2022-12-29T06:50:44.389Z,11.24
2022-12-29T06:53:10.801Z,11.28
2022-12-29T06:55:37.945Z,11.27
2022-12-29T06:58:04.361Z,11.32
2022-12-29T07:00:30.815Z,11.25
2022-12-29T07:03:00.739Z,11.26
2022-12-29T07:05:33.902Z,11.24
2022-12-29T07:08:00.986Z,11.27
2022-12-29T07:10:27.532Z,11.36
2022-12-29T07:12:54.057Z,11.34
2022-12-29T07:15:20.452Z,11.38
2022-12-29T07:17:46.876Z,11.30
2022-12-29T07:20:13.443Z,11.26
2022-12-29T07:22:39.947Z,11.32
2022-12-29T07:25:06.554Z,11.26
2022-12-29T07:27:33.576Z,11.29
2022-12-29T07:30:00.093Z,11.26
2022-12-29T07:32:26.551Z,11.29
2022-12-29T07:34:56.970Z,11.43
2022-12-29T07:37:23.311Z,11.42
2022-12-29T07:39:49.723Z,11.41
2022-12-29T07:42:17.335Z,11.44
2022-12-29T07:44:44.903Z,11.42
2022-12-29T07:47:11.440Z,11.40
2022-12-29T07:49:37.886Z,11.42
2022-12-29T07:52:04.554Z,11.47
2022-12-29T07:54:30.969Z,11.39
2022-12-29T07:56:58.505Z,11.46
2022-12-29T07:59:24.949Z,11.34
2022-12-29T08:01:52.304Z,11.29
2022-12-29T08:04:20.214Z,11.24
2022-12-29T08:06:46.668Z,11.25
2022-12-29T08:09:19.595Z,11.33
2022-12-29T08:11:48.660Z,11.31
2022-12-29T08:14:15.056Z,11.35
2022-12-29T08:16:41.527Z,11.39
2022-12-29T08:19:08.396Z,11.41
2022-12-29T08:21:34.883Z,11.50
2022-12-29T08:24:01.506Z,11.57
2022-12-29T08:26:28.910Z,11.61
2022-12-29T08:28:58.093Z,11.63
2022-12-29T08:31:25.107Z,11.60
2022-12-29T08:33:54.144Z,11.66
2022-12-29T08:36:20.734Z,11.70
2022-12-29T08:38:47.085Z,11.74
2022-12-29T08:41:13.938Z,11.72
2022-12-29T08:43:40.326Z,11.77
2022-12-29T08:46:06.788Z,11.88
2022-12-29T08:48:33.459Z,11.92
2022-12-29T08:50:59.823Z,12.02
2022-12-29T08:53:28.878Z,12.11
2022-12-29T08:56:04.154Z,12.11
2022-12-29T08:58:32.392Z,12.08
2022-12-29T09:00:59.566Z,12.06
2022-12-29T09:03:55.153Z,12.02
2022-12-29T09:06:13.391Z,11.99
2022-12-29T09:08:39.808Z,11.98
2022-12-29T09:11:08.701Z,11.98
2022-12-29T09:13:35.973Z,11.98
2022-12-29T09:16:07.871Z,11.99
2022-12-29T09:18:34.773Z,12.02
2022-12-29T09:21:03.284Z,11.99
2022-12-29T09:23:30.336Z,11.96
2022-12-29T09:25:57.237Z,11.95
2022-12-29T09:28:25.796Z,11.96
2022-12-29T09:30:52.728Z,11.98
2022-12-29T09:33:19.433Z,12.06
2022-12-29T09:35:53.968Z,12.08
2022-12-29T09:38:21.261Z,12.08
2022-12-29T09:40:52.956Z,12.16
2022-12-29T09:43:44.527Z,12.21
2022-12-29T09:46:33.045Z,12.13
2022-12-29T09:49:19.298Z,12.12
2022-12-29T09:51:51.125Z,12.15
2022-12-29T09:54:27.724Z,12.16
2022-12-29T09:56:54.497Z,12.11
2022-12-29T10:00:01.347Z,12.02
2022-12-29T10:03:07.057Z,12.11
2022-12-29T10:05:49.918Z,12.07
2022-12-29T10:08:46.087Z,12.06
2022-12-29T10:11:34.778Z,12.19
2022-12-29T10:14:33.725Z,12.27
2022-12-29T10:17:21.837Z,12.40
2022-12-29T10:20:14.753Z,12.40
2022-12-29T10:22:53.008Z,12.47
2022-12-29T10:25:23.682Z,12.52
2022-12-29T10:27:57.455Z,12.54
2022-12-29T10:30:25.246Z,12.56
2022-12-29T10:32:58.298Z,12.65
2022-12-29T10:35:34.424Z,12.68
2022-12-29T10:38:03.761Z,12.68
2022-12-29T10:40:37.400Z,12.66
2022-12-29T10:43:21.055Z,12.63
2022-12-29T10:45:48.787Z,12.64
2022-12-29T10:48:30.064Z,12.67
2022-12-29T10:51:02.181Z,12.67
2022-12-29T10:53:39.927Z,12.68
2022-12-29T10:56:16.156Z,12.73
2022-12-29T10:58:49.573Z,12.68
2022-12-29T11:01:18.547Z,12.65
2022-12-29T11:04:03.473Z,12.73
2022-12-29T11:06:33.122Z,12.79
2022-12-29T11:09:11.552Z,12.89
2022-12-29T11:11:38.064Z,12.92
2022-12-29T11:14:15.058Z,12.93
2022-12-29T11:16:42.819Z,12.91
2022-12-29T11:19:23.919Z,12.89
2022-12-29T11:21:51.115Z,12.82
2022-12-29T11:24:25.595Z,12.79
2022-12-29T11:26:58.501Z,12.81
2022-12-29T11:29:26.519Z,12.90
2022-12-29T11:31:59.106Z,12.96
2022-12-29T11:34:36.587Z,12.94
2022-12-29T11:37:11.125Z,12.93
2022-12-29T11:39:53.848Z,12.97
2022-12-29T11:42:27.337Z,13.00
2022-12-29T11:44:53.792Z,13.06
2022-12-29T11:47:25.983Z,13.10
2022-12-29T11:49:58.110Z,13.08
2022-12-29T11:52:26.521Z,13.06
2022-12-29T11:54:55.815Z,13.00
2022-12-29T11:57:24.623Z,12.94
2022-12-29T11:59:58.870Z,12.84
2022-12-29T12:02:44.571Z,12.74
2022-12-29T12:05:34.690Z,12.68
2022-12-29T12:08:09.416Z,12.65
2022-12-29T12:10:49.922Z,12.68
2022-12-29T12:13:35.767Z,12.77
2022-12-29T12:16:18.270Z,12.80
2022-12-29T12:19:07.237Z,12.78
2022-12-29T12:21:45.833Z,12.79
2022-12-29T12:24:56.657Z,12.74
2022-12-29T12:27:44.920Z,12.77
2022-12-29T12:30:17.815Z,12.77
2022-12-29T12:33:08.067Z,12.78
2022-12-29T12:36:22.964Z,12.78
2022-12-29T12:39:12.891Z,12.69
2022-12-29T12:42:04.887Z,12.65
2022-12-29T12:44:57.920Z,12.55
2022-12-29T12:47:37.000Z,12.50
2022-12-29T12:50:26.260Z,12.42
2022-12-29T12:53:16.742Z,12.21
2022-12-29T12:55:56.122Z,12.00
2022-12-29T12:58:52.266Z,11.71
2022-12-29T13:01:40.217Z,11.44
2022-12-29T13:04:35.205Z,11.19
2022-12-29T13:07:46.761Z,11.03
2022-12-29T13:10:28.215Z,10.98
2022-12-29T13:13:00.796Z,10.97
2022-12-29T13:15:41.496Z,10.98
2022-12-29T13:18:30.863Z,10.91
2022-12-29T13:21:04.450Z,10.89
2022-12-29T13:23:46.040Z,10.93
2022-12-29T13:26:12.414Z,10.98
2022-12-29T13:29:00.691Z,11.00
2022-12-29T13:31:55.579Z,10.90
2022-12-29T13:34:35.115Z,10.86
2022-12-29T13:37:08.633Z,10.83
2022-12-29T13:39:40.079Z,10.77
2022-12-29T13:42:07.514Z,10.73
2022-12-29T13:44:38.392Z,10.68
2022-12-29T13:47:22.920Z,10.63
2022-12-29T13:49:55.204Z,10.59
2022-12-29T13:52:42.456Z,10.56
2022-12-29T13:55:27.765Z,10.52
2022-12-29T13:58:15.450Z,10.48
2022-12-29T14:01:11.417Z,10.47
2022-12-29T14:03:49.414Z,10.53
2022-12-29T14:06:20.466Z,10.53
2022-12-29T14:08:48.630Z,10.49
2022-12-29T14:11:18.573Z,10.45
2022-12-29T14:13:47.952Z,10.45
2022-12-29T14:16:30.739Z,10.42
2022-12-29T14:19:18.698Z,10.39
2022-12-29T14:21:56.227Z,10.34
2022-12-29T14:24:37.810Z,10.30
2022-12-29T14:27:10.459Z,10.32
2022-12-29T14:29:39.559Z,10.31
2022-12-29T14:32:29.231Z,10.26
2022-12-29T14:34:59.336Z,10.24
2022-12-29T14:37:36.783Z,10.27
2022-12-29T14:40:20.675Z,10.18
2022-12-29T14:42:49.355Z,10.07
2022-12-29T14:45:15.714Z,10.02
2022-12-29T14:47:48.098Z,9.95
2022-12-29T14:50:14.472Z,9.92
2022-12-29T14:52:47.540Z,9.85
2022-12-29T14:55:16.875Z,9.80
2022-12-29T14:57:52.168Z,9.76
2022-12-29T15:00:19.999Z,9.73
2022-12-29T15:02:55.693Z,9.66
2022-12-29T15:05:33.976Z,9.61
2022-12-29T15:08:01.726Z,9.60
2022-12-29T15:10:47.767Z,9.56
2022-12-29T15:13:24.799Z,9.52
2022-12-29T15:15:51.411Z,9.48
2022-12-29T15:18:30.883Z,9.44
2022-12-29T15:21:04.751Z,9.44
2022-12-29T15:23:33.520Z,9.41
2022-12-29T15:26:03.859Z,9.38
2022-12-29T15:28:41.102Z,9.33
2022-12-29T15:31:18.562Z,9.32
2022-12-29T15:33:49.222Z,9.27
2022-12-29T15:36:21.878Z,9.23
2022-12-29T15:38:49.713Z,9.17
2022-12-29T15:41:22.575Z,9.09
2022-12-29T15:44:06.797Z,9.01
2022-12-29T15:46:33.316Z,8.88
2022-12-29T15:48:59.951Z,8.76
2022-12-29T15:51:35.582Z,8.72
2022-12-29T15:54:02.430Z,8.61
2022-12-29T15:56:33.644Z,8.59
2022-12-29T15:59:03.100Z,8.53
2022-12-29T16:01:35.499Z,8.55
2022-12-29T16:04:06.923Z,8.50
2022-12-29T16:06:55.354Z,8.54
2022-12-29T16:09:35.251Z,8.50
2022-12-29T16:12:14.498Z,8.54
2022-12-29T16:14:57.590Z,8.54
2022-12-29T16:17:27.900Z,8.57
2022-12-29T16:19:55.932Z,8.56
2022-12-29T16:22:31.047Z,8.60
2022-12-29T16:25:05.032Z,8.61
2022-12-29T16:27:41.505Z,8.68
2022-12-29T16:30:33.409Z,8.69
2022-12-29T16:33:02.839Z,8.74
2022-12-29T16:35:42.970Z,8.79
2022-12-29T16:38:16.479Z,8.80
2022-12-29T16:41:03.520Z,8.84
2022-12-29T16:43:40.328Z,8.89
2022-12-29T16:46:18.151Z,8.87
2022-12-29T16:48:54.692Z,8.83
2022-12-29T16:51:30.911Z,8.90
2022-12-29T16:53:58.021Z,8.93
2022-12-29T16:56:30.238Z,8.98
2022-12-29T16:59:23.101Z,8.97
2022-12-29T17:01:55.226Z,8.98
2022-12-29T17:04:21.641Z,9.05
2022-12-29T17:06:48.601Z,9.11
2022-12-29T17:09:27.828Z,9.08
2022-12-29T17:12:10.734Z,9.07
2022-12-29T17:14:42.781Z,9.03
2022-12-29T17:17:39.004Z,9.01
2022-12-29T17:20:26.815Z,8.99
2022-12-29T17:22:54.958Z,9.01
2022-12-29T17:25:37.351Z,9.01
2022-12-29T17:28:13.624Z,8.96
2022-12-29T17:30:41.038Z,8.97
2022-12-29T17:33:13.574Z,9.01
2022-12-29T17:35:42.400Z,8.95
2022-12-29T17:38:46.617Z,8.97
2022-12-29T17:41:19.386Z,8.94
2022-12-29T17:43:48.431Z,8.95
2022-12-29T17:46:14.982Z,8.98
2022-12-29T17:48:41.411Z,9.02
2022-12-29T17:51:11.919Z,8.99
2022-12-29T17:53:38.507Z,8.99
2022-12-29T17:56:08.073Z,8.97
2022-12-29T17:58:34.791Z,9.00
2022-12-29T18:01:03.199Z,9.01
2022-12-29T18:03:35.877Z,9.02
2022-12-29T18:06:06.462Z,9.01
2022-12-29T18:08:34.555Z,9.02
2022-12-29T18:11:04.392Z,9.00
2022-12-29T18:13:43.535Z,8.98
2022-12-29T18:16:13.133Z,8.97
2022-12-29T18:18:41.959Z,8.96
2022-12-29T18:21:22.929Z,9.00
2022-12-29T18:23:49.806Z,8.89
2022-12-29T18:26:25.696Z,8.83
2022-12-29T18:28:57.413Z,8.76
2022-12-29T18:31:26.615Z,8.67
2022-12-29T18:33:54.420Z,8.65
2022-12-29T18:36:21.379Z,8.62
2022-12-29T18:38:55.682Z,8.58
2022-12-29T18:41:30.841Z,8.52
2022-12-29T18:43:58.916Z,8.54
2022-12-29T18:46:25.545Z,8.50
2022-12-29T18:48:52.689Z,8.45
2022-12-29T18:51:23.735Z,8.42
2022-12-29T18:53:52.334Z,8.43
2022-12-29T18:56:23.132Z,8.40
2022-12-29T18:58:50.558Z,8.44
2022-12-29T19:01:22.465Z,8.36
2022-12-29T19:03:49.636Z,8.39
2022-12-29T19:06:16.480Z,8.38
2022-12-29T19:08:45.198Z,8.39
2022-12-29T19:11:17.953Z,8.42
2022-12-29T19:13:44.412Z,8.40
2022-12-29T19:16:19.384Z,8.39
2022-12-29T19:19:02.397Z,8.36
2022-12-29T19:21:34.076Z,8.34
2022-12-29T19:24:00.625Z,8.31
2022-12-29T19:26:30.705Z,8.31
2022-12-29T19:28:58.403Z,8.31
2022-12-29T19:31:27.120Z,8.29
2022-12-29T19:33:53.730Z,8.30
2022-12-29T19:36:23.374Z,8.37
2022-12-29T19:38:49.783Z,8.35
2022-12-29T19:41:16.339Z,8.38
2022-12-29T19:43:43.792Z,8.37
2022-12-29T19:46:15.272Z,8.35
2022-12-29T19:48:41.904Z,8.34
2022-12-29T19:51:15.477Z,8.36
2022-12-29T19:53:41.852Z,8.34
2022-12-29T19:56:08.976Z,8.35
2022-12-29T19:58:41.556Z,8.33
2022-12-29T20:01:13.466Z,8.31
2022-12-29T20:03:41.515Z,8.30
2022-12-29T20:06:10.345Z,8.31
2022-12-29T20:08:38.169Z,8.31
2022-12-29T20:11:11.519Z,8.32
2022-12-29T20:13:37.925Z,8.26
2022-12-29T20:16:07.886Z,8.27
2022-12-29T20:18:38.152Z,8.23
2022-12-29T20:21:07.023Z,8.28
2022-12-29T20:23:34.510Z,8.27
2022-12-29T20:26:02.169Z,8.30
2022-12-29T20:28:29.613Z,8.29
2022-12-29T20:31:03.137Z,8.27
2022-12-29T20:33:34.494Z,8.29
2022-12-29T20:36:23.884Z,8.27
2022-12-29T20:38:55.072Z,8.26
2022-12-29T20:41:22.788Z,8.24
2022-12-29T20:43:50.384Z,8.26
2022-12-29T20:46:20.787Z,8.29
2022-12-29T20:48:48.814Z,8.27
2022-12-29T20:51:17.882Z,8.26
2022-12-29T20:53:44.465Z,8.26
2022-12-29T20:56:15.969Z,8.28
2022-12-29T20:59:08.507Z,8.26
2022-12-29T21:01:29.445Z,8.27
2022-12-29T21:03:59.765Z,8.26
2022-12-29T21:06:29.345Z,8.24
2022-12-29T21:08:55.915Z,8.23
2022-12-29T21:11:22.837Z,8.20
2022-12-29T21:13:49.919Z,8.32
2022-12-29T21:16:20.976Z,8.26
2022-12-29T21:18:48.496Z,8.34
2022-12-29T21:21:23.692Z,8.30
2022-12-29T21:23:50.989Z,8.33
2022-12-29T21:26:19.927Z,8.29
2022-12-29T21:28:48.918Z,8.26
2022-12-29T21:31:30.869Z,8.23
2022-12-29T21:33:57.929Z,8.20
2022-12-29T21:36:27.455Z,8.17
2022-12-29T21:38:54.711Z,8.15
2022-12-29T21:41:21.870Z,8.13
2022-12-29T21:44:08.834Z,8.14
2022-12-29T21:46:38.255Z,8.14
2022-12-29T21:49:06.097Z,8.13
2022-12-29T21:51:51.808Z,8.13
2022-12-29T21:54:41.309Z,8.11
2022-12-29T21:57:08.705Z,8.12
2022-12-29T21:59:53.930Z,8.11
2022-12-29T22:02:47.050Z,8.07
2022-12-29T22:05:34.916Z,8.00
2022-12-29T22:08:21.535Z,8.00
2022-12-29T22:11:06.603Z,8.00
2022-12-29T22:13:38.912Z,7.97
2022-12-29T22:16:10.278Z,7.93
2022-12-29T22:18:37.171Z,7.95
2022-12-29T22:21:14.936Z,7.92
2022-12-29T22:23:44.013Z,7.95
2022-12-29T22:26:13.221Z,7.93
2022-12-29T22:28:41.960Z,8.00
2022-12-29T22:31:27.992Z,8.05
2022-12-29T22:34:06.395Z,8.04
2022-12-29T22:36:33.337Z,8.07
2022-12-29T22:38:59.719Z,8.06
2022-12-29T22:41:26.188Z,8.15
2022-12-29T22:43:52.608Z,8.16
2022-12-29T22:46:21.487Z,8.08
2022-12-29T22:48:48.432Z,8.03
2022-12-29T22:51:14.860Z,7.98
2022-12-29T22:53:45.443Z,7.96
2022-12-29T22:56:13.860Z,7.97
2022-12-29T22:58:45.232Z,7.96
2022-12-29T23:01:17.648Z,7.94
2022-12-29T23:03:44.655Z,7.89
2022-12-29T23:06:16.040Z,7.88
2022-12-29T23:08:44.001Z,7.85
2022-12-29T23:11:16.249Z,7.91
2022-12-29T23:13:45.123Z,7.90
2022-12-29T23:16:11.640Z,7.86
2022-12-29T23:18:38.223Z,7.89
2022-12-29T23:21:07.491Z,7.90
2022-12-29T23:23:52.451Z,7.84
2022-12-29T23:26:22.950Z,7.86
2022-12-29T23:28:52.370Z,7.80
2022-12-29T23:31:23.419Z,7.82
2022-12-29T23:33:50.160Z,7.75
2022-12-29T23:36:17.035Z,7.74
2022-12-29T23:38:44.137Z,7.70
2022-12-29T23:41:11.813Z,7.64
2022-12-29T23:43:38.660Z,7.57
2022-12-29T23:46:10.595Z,7.50
2022-12-29T23:48:37.296Z,7.50
2022-12-29T23:51:07.429Z,7.45
2022-12-29T23:53:36.579Z,7.41
2022-12-29T23:56:04.123Z,7.38
2022-12-29T23:58:35.005Z,7.31
